createdAt,value
2023-07-23T00:02:52.661Z,12.68
2023-07-23T00:07:57.998Z,13.40
2023-07-23T00:12:59.436Z,12.57
2023-07-23T00:18:01.746Z,15.75
2023-07-23T00:23:03.276Z,15.95
2023-07-23T00:28:04.818Z,15.63
2023-07-23T00:33:06.264Z,15.15
2023-07-23T00:38:07.681Z,14.15
2023-07-23T00:43:09.163Z,12.43
2023-07-23T00:48:10.597Z,11.23
2023-07-23T00:53:12.061Z,14.73
2023-07-23T00:58:13.438Z,17.70
2023-07-23T01:03:15.290Z,15.23
2023-07-23T01:08:16.777Z,12.52
2023-07-23T01:13:18.262Z,13.07
2023-07-23T01:18:20.624Z,9.50
2023-07-23T01:23:22.109Z,10.32
2023-07-23T01:28:23.649Z,13.60
2023-07-23T01:33:25.095Z,14.90
2023-07-23T01:38:26.833Z,11.68
2023-07-23T01:43:28.910Z,11.02
2023-07-23T01:48:32.464Z,12.70
2023-07-23T01:53:34.368Z,12.82
2023-07-23T01:58:35.784Z,16.13
2023-07-23T02:03:37.359Z,19.45
2023-07-23T02:08:38.756Z,15.45
2023-07-23T02:13:40.157Z,17.35
2023-07-23T02:18:41.551Z,17.05
2023-07-23T02:23:43.901Z,17.40
2023-07-23T02:28:45.345Z,18.55
2023-07-23T02:33:47.118Z,19.27
2023-07-23T02:38:48.518Z,19.45
2023-07-23T02:43:50.028Z,19.80
2023-07-23T02:48:51.413Z,21.35
2023-07-23T02:53:52.896Z,19.75
2023-07-23T02:58:54.267Z,19.45
2023-07-23T03:03:55.704Z,23.92
2023-07-23T03:08:57.144Z,22.02
2023-07-23T03:13:58.540Z,18.52
2023-07-23T03:18:59.940Z,19.02
2023-07-23T03:24:01.568Z,19.98
2023-07-23T03:29:03.122Z,18.38
2023-07-23T03:34:04.505Z,18.88
2023-07-23T03:39:05.908Z,20.75
2023-07-23T03:44:07.404Z,21.02
2023-07-23T03:49:08.818Z,22.08
2023-07-23T03:54:10.240Z,19.25
2023-07-23T03:59:11.696Z,22.40
2023-07-23T04:04:13.191Z,18.58
2023-07-23T04:09:14.838Z,18.77
2023-07-23T04:14:16.422Z,19.52
2023-07-23T04:19:18.036Z,20.45
2023-07-23T04:24:19.459Z,19.67
2023-07-23T04:29:20.880Z,20.10
2023-07-23T04:34:22.269Z,17.73
2023-07-23T04:39:23.936Z,19.13
2023-07-23T04:44:25.438Z,18.23
2023-07-23T04:49:26.825Z,22.63
2023-07-23T04:54:28.247Z,17.85
2023-07-23T04:59:29.695Z,17.65
2023-07-23T05:04:31.123Z,17.40
2023-07-23T05:09:32.524Z,17.55
2023-07-23T05:14:36.777Z,14.25
2023-07-23T05:24:39.485Z,14.18
2023-07-23T05:29:40.905Z,13.55
2023-07-23T05:34:42.292Z,11.55
2023-07-23T05:39:43.678Z,12.43
2023-07-23T05:44:45.076Z,9.45
2023-07-23T05:49:46.434Z,11.43
2023-07-23T05:54:47.895Z,10.05
2023-07-23T05:59:49.329Z,8.93
2023-07-23T06:04:51.264Z,7.55
2023-07-23T06:09:52.653Z,8.45
2023-07-23T06:14:54.196Z,7.72
2023-07-23T06:19:55.603Z,9.00
2023-07-23T06:24:56.982Z,7.43
2023-07-23T06:29:58.364Z,7.35
2023-07-23T06:34:59.779Z,6.30
2023-07-23T06:40:01.218Z,5.32
2023-07-23T06:45:02.665Z,5.78
2023-07-23T06:50:04.221Z,4.85
2023-07-23T06:55:05.823Z,4.15
2023-07-23T07:00:08.682Z,4.63
2023-07-23T07:05:10.444Z,4.93
2023-07-23T07:10:11.838Z,4.43
2023-07-23T07:15:13.291Z,5.38
2023-07-23T07:20:14.717Z,5.13
2023-07-23T07:25:16.209Z,5.28
2023-07-23T07:30:17.593Z,5.30
2023-07-23T07:35:19.027Z,5.90
2023-07-23T07:40:20.426Z,6.32
2023-07-23T07:45:21.805Z,8.48
2023-07-23T07:50:23.242Z,6.93
2023-07-23T07:55:24.728Z,9.10
2023-07-23T08:00:26.253Z,8.38
2023-07-23T08:05:27.978Z,7.38
2023-07-23T08:10:30.546Z,7.32
2023-07-23T08:15:33.637Z,6.60
2023-07-23T08:20:36.155Z,7.25
2023-07-23T08:25:38.109Z,6.80
2023-07-23T08:30:39.552Z,7.68
2023-07-23T08:35:41.016Z,6.30
2023-07-23T08:40:43.617Z,8.73
2023-07-23T08:45:47.805Z,8.60
2023-07-23T08:50:50.452Z,6.10
2023-07-23T08:55:52.100Z,6.80
2023-07-23T09:00:53.890Z,7.40
2023-07-23T09:05:55.331Z,9.07
2023-07-23T09:10:56.718Z,7.55
2023-07-23T09:16:00.204Z,8.13
2023-07-23T09:21:05.227Z,8.13
2023-07-23T09:26:09.787Z,10.27
2023-07-23T09:31:11.378Z,9.77
2023-07-23T09:36:13.040Z,8.23
2023-07-23T09:41:14.419Z,8.13
2023-07-23T09:46:15.835Z,6.90
2023-07-23T09:51:17.343Z,7.40
2023-07-23T09:56:19.988Z,9.57
2023-07-23T10:01:21.742Z,9.52
2023-07-23T10:06:25.156Z,9.32
2023-07-23T10:11:30.033Z,8.38
2023-07-23T10:16:39.229Z,9.45
2023-07-23T10:21:40.833Z,8.30
2023-07-23T10:26:55.036Z,7.72
2023-07-23T10:32:16.397Z,7.75
2023-07-23T10:37:24.012Z,8.77
2023-07-23T10:42:28.931Z,7.70
2023-07-23T10:47:33.996Z,8.57
2023-07-23T10:52:35.450Z,9.88
2023-07-23T10:57:42.130Z,10.02
2023-07-23T11:02:46.893Z,10.38
2023-07-23T11:08:07.412Z,9.43
2023-07-23T11:13:09.475Z,10.60
2023-07-23T11:18:11.211Z,9.88
2023-07-23T11:23:13.429Z,8.85
2023-07-23T11:28:17.367Z,10.93
2023-07-23T11:33:21.309Z,9.43
2023-07-23T11:38:31.496Z,12.30
2023-07-23T11:43:35.979Z,10.48
2023-07-23T11:48:37.450Z,13.27
2023-07-23T11:53:38.952Z,8.38
2023-07-23T11:58:43.171Z,10.70
2023-07-23T12:08:46.527Z,10.25
2023-07-23T12:13:52.120Z,12.48
2023-07-23T12:18:53.545Z,12.05
2023-07-23T12:23:54.926Z,10.40
2023-07-23T12:28:56.905Z,11.13
2023-07-23T12:33:58.311Z,13.68
2023-07-23T12:38:59.691Z,14.57
2023-07-23T12:44:01.949Z,10.98
2023-07-23T12:49:04.013Z,11.13
2023-07-23T12:54:05.450Z,8.95
2023-07-23T12:59:06.961Z,9.63
2023-07-23T13:04:08.609Z,7.35
2023-07-23T13:09:10.612Z,5.28
2023-07-23T13:14:12.127Z,5.72
2023-07-23T13:19:14.054Z,5.78
2023-07-23T13:24:15.453Z,5.07
2023-07-23T13:29:16.829Z,6.20
2023-07-23T13:34:18.223Z,4.15
2023-07-23T13:39:19.631Z,2.90
2023-07-23T13:44:21.055Z,3.35
2023-07-23T13:49:22.508Z,5.13
2023-07-23T13:54:23.947Z,2.70
2023-07-23T13:59:26.252Z,3.60
2023-07-23T14:04:27.660Z,3.97
2023-07-23T14:09:29.125Z,5.47
2023-07-23T14:14:30.598Z,2.47
2023-07-23T14:19:31.994Z,3.20
2023-07-23T14:24:33.570Z,3.10
2023-07-23T14:29:36.140Z,3.05
2023-07-23T14:34:42.066Z,4.07
2023-07-23T14:39:43.473Z,4.18
2023-07-23T14:44:44.918Z,3.35
2023-07-23T14:49:46.389Z,4.63
2023-07-23T14:54:47.801Z,4.30
2023-07-23T14:59:49.261Z,5.15
2023-07-23T15:04:50.701Z,6.50
2023-07-23T15:09:52.081Z,7.20
2023-07-23T15:14:53.569Z,7.95
2023-07-23T15:19:57.160Z,8.15
2023-07-23T15:25:00.408Z,7.80
2023-07-23T15:30:01.932Z,8.90
2023-07-23T15:35:03.419Z,10.32
2023-07-23T15:40:08.985Z,8.23
2023-07-23T15:45:10.640Z,7.93
2023-07-23T15:50:13.086Z,11.05
2023-07-23T15:55:14.609Z,10.00
2023-07-23T16:00:16.065Z,11.30
2023-07-23T16:05:17.881Z,9.13
2023-07-23T16:10:19.287Z,8.98
2023-07-23T16:15:21.915Z,8.57
2023-07-23T16:20:23.341Z,6.93
2023-07-23T16:25:24.754Z,8.50
2023-07-23T16:30:26.354Z,11.63
2023-07-23T16:35:27.981Z,7.05
2023-07-23T16:40:29.639Z,6.70
2023-07-23T16:45:32.206Z,6.65
2023-07-23T16:50:33.731Z,6.78
2023-07-23T16:55:35.228Z,6.82
2023-07-23T17:00:36.671Z,8.93
2023-07-23T17:05:38.177Z,10.85
2023-07-23T17:10:39.620Z,11.00
2023-07-23T17:15:41.045Z,8.07
2023-07-23T17:20:44.642Z,7.65
2023-07-23T17:25:46.134Z,7.38
2023-07-23T17:31:13.815Z,9.18
2023-07-23T17:36:15.284Z,6.75
2023-07-23T17:41:16.932Z,6.80
2023-07-23T17:46:18.391Z,8.18
2023-07-23T17:51:19.988Z,9.23
2023-07-23T17:56:21.396Z,6.75
2023-07-23T18:01:30.592Z,8.40
2023-07-23T18:06:33.428Z,8.82
2023-07-23T18:11:35.293Z,6.93
2023-07-23T18:16:36.764Z,7.95
2023-07-23T18:21:38.340Z,6.90
2023-07-23T18:26:40.240Z,8.77
2023-07-23T18:31:41.673Z,7.18
2023-07-23T18:36:43.329Z,6.60
2023-07-23T18:41:44.744Z,7.15
2023-07-23T18:46:46.241Z,9.98
2023-07-23T18:51:48.063Z,7.28
2023-07-23T18:56:49.666Z,8.40
2023-07-23T19:01:53.314Z,8.27
2023-07-23T19:06:54.917Z,9.48
2023-07-23T19:11:56.300Z,7.97
2023-07-23T19:16:58.217Z,8.93
2023-07-23T19:21:59.614Z,8.63
2023-07-23T19:27:01.015Z,8.13
2023-07-23T19:32:02.418Z,8.13
2023-07-23T19:37:03.966Z,7.15
2023-07-23T19:42:05.568Z,8.43
2023-07-23T19:47:07.994Z,7.40
2023-07-23T19:52:09.968Z,6.88
2023-07-23T19:57:14.129Z,8.35
2023-07-23T20:07:16.956Z,6.97
2023-07-23T20:12:18.953Z,9.15
2023-07-23T20:17:21.274Z,7.22
2023-07-23T20:22:24.650Z,6.88
2023-07-23T20:27:27.728Z,7.80
2023-07-23T20:32:31.290Z,7.43
2023-07-23T20:37:33.234Z,9.50
2023-07-23T20:42:34.836Z,15.68
2023-07-23T20:47:36.324Z,7.40
2023-07-23T20:52:39.451Z,6.90
2023-07-23T20:57:40.889Z,10.23
2023-07-23T21:02:42.373Z,8.55
2023-07-23T21:07:43.776Z,8.07
2023-07-23T21:12:45.270Z,10.30
2023-07-23T21:17:46.731Z,7.82
2023-07-23T21:22:48.211Z,8.48
2023-07-23T21:27:50.442Z,8.27
2023-07-23T21:32:51.875Z,7.57
2023-07-23T21:37:53.296Z,6.95
2023-07-23T21:42:54.724Z,7.30
2023-07-23T21:47:56.187Z,9.18
2023-07-23T21:52:57.591Z,8.38
2023-07-23T21:57:58.957Z,9.23
2023-07-23T22:03:00.491Z,7.43
2023-07-23T22:08:02.037Z,9.20
2023-07-23T22:13:03.508Z,9.02
2023-07-23T22:18:04.973Z,7.55
2023-07-23T22:23:06.387Z,8.65
2023-07-23T22:28:07.839Z,10.38
2023-07-23T22:33:09.306Z,10.13
2023-07-23T22:38:10.741Z,9.55
2023-07-23T22:43:12.130Z,8.70
2023-07-23T22:48:13.962Z,7.70
2023-07-23T22:53:15.478Z,9.23
2023-07-23T22:58:16.923Z,10.75
2023-07-23T23:03:18.414Z,8.73
2023-07-23T23:08:19.945Z,12.18
2023-07-23T23:13:21.479Z,8.75
2023-07-23T23:18:22.897Z,8.60
2023-07-23T23:23:24.311Z,9.90
2023-07-23T23:28:25.711Z,10.27
2023-07-23T23:33:27.084Z,9.65
2023-07-23T23:38:28.517Z,10.25
2023-07-23T23:43:29.919Z,8.82
2023-07-23T23:48:31.301Z,13.93
2023-07-23T23:53:32.822Z,12.15
2023-07-23T23:58:34.342Z,11.30
